This is the latest recevied weather packets stored in our database for station/object N0RPM-13. If no packets are shown the sender has not sent any weather packets the latest 10 day(s).
| Time | Temp. | Humidity | Pressure | Rain* | Wind** | Luminosity | Snow |
|---|---|---|---|---|---|---|---|
| 1788535513 | 30° C | 68% | 1011.7 hPa | 0 mm | - | 547 W/m² | - |
| 1788535222 | 30.56° C | 67% | 1011.7 hPa | 0 mm | - | 531 W/m² | - |
| 1788534903 | 30° C | 68% | 1011.6 hPa | 0 mm | - | 518 W/m² | - |
| 1788534602 | 30.56° C | 68% | 1011.6 hPa | 0 mm | - | 498 W/m² | - |
| 1788534297 | 30° C | 70% | 1011.4 hPa | 0 mm | - | 509 W/m² | - |
| 1788533996 | 29.44° C | 69% | 1011.5 hPa | 0 mm | - | 473 W/m² | - |
| 1788533692 | 29.44° C | 71% | 1011.7 hPa | 0 mm | - | 453 W/m² | - |
| 1788533387 | 28.33° C | 74% | 1011.5 hPa | 0 mm | - | 437 W/m² | - |
| 1788533083 | 27.78° C | 76% | 1011.5 hPa | 0 mm | - | 420 W/m² | - |
| 1788532778 | 27.78° C | 75% | 1011.4 hPa | 0 mm | - | 404 W/m² | - |
| 1788532474 | 28.89° C | 73% | 1011.5 hPa | 0 mm | - | 388 W/m² | - |
| 1788532176 | 28.33° C | 74% | 1011.4 hPa | 0 mm | - | 371 W/m² | - |
| 1788531867 | 27.78° C | 76% | 1011.5 hPa | 0 mm | - | 355 W/m² | - |
| 1788531567 | 27.22° C | 78% | 1011.4 hPa | 0 mm | - | 114 W/m² | - |
| 1788531262 | 26.67° C | 80% | 1011.6 hPa | 0 mm | - | 211 W/m² | - |
| 1788530959 | 26.67° C | 81% | 1011.5 hPa | 0 mm | - | 175 W/m² | - |
| 1788530658 | 26.11° C | 82% | 1011.7 hPa | 0 mm | - | 152 W/m² | - |
| 1788530357 | 26.11° C | 84% | 1011.7 hPa | 0 mm | - | 154 W/m² | - |
| 1788530057 | 25.56° C | 85% | 1011.9 hPa | 0 mm | - | 82 W/m² | - |
| 1788529754 | 25° C | 87% | 1011.7 hPa | 0 mm | - | 126 W/m² | - |
| 1788529453 | 25° C | 89% | 1011.7 hPa | 0 mm | - | 58 W/m² | - |
| 1788529165 | 25° C | 89% | 1011.7 hPa | 0 mm | - | 50 W/m² | - |
| 1788528843 | 24.44° C | 90% | 1011.9 hPa | 0 mm | - | 48 W/m² | - |
| 1788528538 | 24.44° C | 91% | 1011.7 hPa | 0 mm | - | 61 W/m² | - |
| 1788528233 | 24.44° C | 91% | 1011.9 hPa | 0 mm | - | 46 W/m² | - |
* Rain latest hour (hover to see other rain measurements)
** Current wind speed in m/s (hover to see current wind gust speed)